createdAt,value
2022-08-26T00:04:42.838Z,100327.79
2022-08-26T00:09:47.298Z,100321.39
2022-08-26T00:14:50.530Z,100320.30
2022-08-26T00:19:53.603Z,100327.02
2022-08-26T00:24:56.606Z,100329.15
2022-08-26T00:30:01.800Z,100318.27
2022-08-26T00:35:05.749Z,100312.52
2022-08-26T00:40:16.867Z,100306.92
2022-08-26T00:45:20.553Z,100305.91
2022-08-26T00:50:42.257Z,100302.83
2022-08-26T00:55:45.613Z,100299.77
2022-08-26T01:00:48.959Z,100303.60
2022-08-26T01:05:57.921Z,100302.27
2022-08-26T01:11:02.624Z,100304.81
2022-08-26T01:16:12.088Z,100306.15
2022-08-26T01:21:44.020Z,100298.23
2022-08-26T01:26:48.869Z,100303.52
2022-08-26T01:31:56.015Z,100302.69
2022-08-26T01:37:05.447Z,100305.42
2022-08-26T01:42:13.391Z,100307.31
2022-08-26T01:47:18.269Z,100310.30
2022-08-26T01:52:28.106Z,100311.25
2022-08-26T01:57:32.003Z,100309.40
2022-08-26T02:02:35.005Z,100307.14
2022-08-26T02:07:40.418Z,100309.86
2022-08-26T02:12:43.482Z,100307.61
2022-08-26T02:17:47.708Z,100306.77
2022-08-26T02:22:50.723Z,100307.70
2022-08-26T02:27:54.755Z,100307.55
2022-08-26T02:33:04.042Z,100306.20
2022-08-26T02:38:09.795Z,100304.27
2022-08-26T02:43:13.289Z,100302.61
2022-08-26T02:48:19.164Z,100301.07
2022-08-26T02:53:25.333Z,100305.70
2022-08-26T02:58:28.658Z,100309.73
2022-08-26T03:03:32.252Z,100303.56
2022-08-26T03:08:35.698Z,100301.31
2022-08-26T03:13:39.727Z,100302.73
2022-08-26T03:18:43.467Z,100296.77
2022-08-26T03:23:55.159Z,100298.50
2022-08-26T03:29:20.493Z,100297.89
2022-08-26T03:34:23.597Z,100295.08
2022-08-26T03:39:31.455Z,100290.54
2022-08-26T03:44:35.227Z,100285.63
2022-08-26T03:49:38.558Z,100280.83
2022-08-26T03:54:42.279Z,100282.84
2022-08-26T03:59:46.515Z,100289.34
2022-08-26T04:04:51.260Z,100284.34
2022-08-26T04:09:58.670Z,100283.05
2022-08-26T04:15:01.682Z,100288.34
2022-08-26T04:20:07.771Z,100299.54
2022-08-26T04:25:13.464Z,100303.45
2022-08-26T04:30:16.815Z,100300.08
2022-08-26T04:35:25.857Z,100299.38
2022-08-26T04:40:29.300Z,100300.98
2022-08-26T04:45:32.314Z,100302.45
2022-08-26T04:50:35.522Z,100302.66
2022-08-26T04:55:42.741Z,100304.52
2022-08-26T05:00:49.825Z,100307.60
2022-08-26T05:05:52.939Z,100310.31
2022-08-26T05:10:56.492Z,100317.13
2022-08-26T05:16:04.518Z,100312.72
2022-08-26T05:21:08.207Z,100314.95
2022-08-26T05:26:14.184Z,100316.70
2022-08-26T05:31:27.265Z,100325.52
2022-08-26T05:36:33.912Z,100329.91
2022-08-26T05:41:41.199Z,100326.55
2022-08-26T05:46:44.995Z,100335.03
2022-08-26T05:51:48.463Z,100335.38
2022-08-26T05:56:54.134Z,100335.36
2022-08-26T06:01:57.335Z,100336.17
2022-08-26T06:07:01.788Z,100337.63
2022-08-26T06:12:06.126Z,100331.23
2022-08-26T06:17:09.545Z,100332.89
2022-08-26T06:22:32.721Z,100335.64
2022-08-26T06:27:37.096Z,100335.25
2022-08-26T06:32:40.065Z,100331.98
2022-08-26T06:37:43.490Z,100331.30
2022-08-26T06:42:46.896Z,100332.88
2022-08-26T06:47:50.016Z,100333.63
2022-08-26T06:52:54.751Z,100342.31
2022-08-26T06:58:00.116Z,100339.53
2022-08-26T07:03:04.467Z,100338.14
2022-08-26T07:08:07.678Z,100340.80
2022-08-26T07:13:12.543Z,100340.33
2022-08-26T07:18:17.328Z,100337.00
2022-08-26T07:23:20.818Z,100340.08
2022-08-26T07:28:27.061Z,100337.52
2022-08-26T07:33:30.276Z,100333.73
2022-08-26T07:38:34.480Z,100333.30
2022-08-26T07:43:38.001Z,100335.08
2022-08-26T07:48:41.578Z,100334.11
2022-08-26T07:53:52.642Z,100334.29
2022-08-26T07:58:56.059Z,100337.71
2022-08-26T08:03:59.171Z,100336.83
2022-08-26T08:09:06.172Z,100332.67
2022-08-26T08:14:11.712Z,100335.54
2022-08-26T08:19:15.679Z,100333.27
2022-08-26T08:24:19.181Z,100322.67
2022-08-26T08:29:22.189Z,100320.21
2022-08-26T08:34:28.119Z,100311.17
2022-08-26T08:39:32.121Z,100311.48
2022-08-26T08:44:41.157Z,100307.46
2022-08-26T08:49:44.992Z,100305.95
2022-08-26T08:54:48.933Z,100304.62
2022-08-26T09:00:09.538Z,100299.95
2022-08-26T09:05:25.174Z,100297.66
2022-08-26T09:10:45.023Z,100301.17
2022-08-26T09:16:10.063Z,100299.52
2022-08-26T09:21:16.304Z,100296.44
2022-08-26T09:26:30.958Z,100294.80
2022-08-26T09:31:42.214Z,100294.13
2022-08-26T09:36:57.294Z,100285.83
2022-08-26T09:42:23.379Z,100284.24
2022-08-26T09:47:31.635Z,100277.44
2022-08-26T09:52:34.984Z,100272.40
2022-08-26T09:57:52.432Z,100272.17
2022-08-26T10:02:58.151Z,100273.52
2022-08-26T10:08:23.146Z,100268.54
2022-08-26T10:13:26.230Z,100272.42
2022-08-26T10:18:35.891Z,100268.85
2022-08-26T10:23:43.969Z,100269.48
2022-08-26T10:29:14.207Z,100262.01
2022-08-26T10:34:18.955Z,100255.22
2022-08-26T10:39:36.252Z,100252.09
2022-08-26T10:44:41.589Z,100255.66
2022-08-26T10:49:51.706Z,100254.45
2022-08-26T10:55:03.705Z,100251.61
2022-08-26T11:00:51.443Z,100247.52
2022-08-26T11:06:16.378Z,100243.11
2022-08-26T11:11:41.301Z,100234.76
2022-08-26T11:16:51.968Z,100228.33
2022-08-26T11:22:07.181Z,100226.35
2022-08-26T11:27:23.600Z,100223.23
2022-08-26T11:32:52.448Z,100217.98
2022-08-26T11:38:17.400Z,100209.95
2022-08-26T11:43:26.201Z,100208.55
2022-08-26T11:48:39.543Z,100211.06
2022-08-26T11:53:47.359Z,100203.73
2022-08-26T11:58:55.897Z,100196.48
2022-08-26T12:04:01.073Z,100184.53
2022-08-26T12:09:10.931Z,100185.04
2022-08-26T12:14:18.724Z,100178.26
2022-08-26T12:19:33.907Z,100172.70
2022-08-26T12:24:46.798Z,100169.14
2022-08-26T12:30:12.445Z,100158.02
2022-08-26T12:35:21.162Z,100152.24
2022-08-26T12:40:31.772Z,100142.81
2022-08-26T12:45:44.489Z,100142.87
2022-08-26T12:50:51.607Z,100140.16
2022-08-26T12:56:00.610Z,100137.05
2022-08-26T13:01:06.953Z,100127.04
2022-08-26T13:06:16.760Z,100124.14
2022-08-26T13:11:35.606Z,100114.16
2022-08-26T13:16:41.848Z,100103.86
2022-08-26T13:21:49.634Z,100101.33
2022-08-26T13:26:52.977Z,100099.46
2022-08-26T13:31:56.518Z,100097.79
2022-08-26T13:37:00.970Z,100095.88
2022-08-26T13:42:04.357Z,100089.76
2022-08-26T13:47:07.439Z,100087.26
2022-08-26T13:52:11.772Z,100081.70
2022-08-26T13:57:14.778Z,100075.21
2022-08-26T14:02:17.993Z,100068.23
2022-08-26T14:07:21.571Z,100061.33
2022-08-26T14:12:25.406Z,100058.98
2022-08-26T14:17:31.483Z,100051.73
2022-08-26T14:22:40.441Z,100049.43
2022-08-26T14:27:46.947Z,100044.98
2022-08-26T14:32:55.259Z,100040.96
2022-08-26T14:37:58.565Z,100040.16
2022-08-26T14:43:01.907Z,100040.14
2022-08-26T14:48:05.301Z,100031.77
2022-08-26T14:53:29.115Z,100022.71
2022-08-26T14:58:34.885Z,100022.48
2022-08-26T15:03:38.202Z,100017.60
2022-08-26T15:08:41.515Z,100010.86
2022-08-26T15:13:48.310Z,100008.56
2022-08-26T15:18:54.430Z,100010.62
2022-08-26T15:23:57.604Z,100003.45
2022-08-26T15:29:04.840Z,100002.11
2022-08-26T15:34:16.178Z,99998.65
2022-08-26T15:39:20.710Z,99997.41
2022-08-26T15:44:25.602Z,99992.04
2022-08-26T15:49:28.770Z,99986.42
2022-08-26T15:54:32.944Z,99982.80
2022-08-26T15:59:36.057Z,99981.00
2022-08-26T16:04:39.981Z,99972.67
2022-08-26T16:09:42.992Z,99971.75
2022-08-26T16:14:52.710Z,99967.67
2022-08-26T16:19:56.456Z,99964.14
2022-08-26T16:25:00.000Z,99959.92
2022-08-26T16:30:09.263Z,99963.77
2022-08-26T16:35:12.244Z,99961.95
2022-08-26T16:40:15.509Z,99960.35
2022-08-26T16:45:19.468Z,99956.41
2022-08-26T16:50:24.059Z,99953.89
2022-08-26T16:55:27.620Z,99959.42
2022-08-26T17:00:34.344Z,99954.80
2022-08-26T17:05:37.463Z,99955.75
2022-08-26T17:10:40.671Z,99959.98
2022-08-26T17:15:54.337Z,99965.86
2022-08-26T17:21:07.236Z,99966.27
2022-08-26T17:26:12.461Z,99965.81
2022-08-26T17:31:15.602Z,99963.14
2022-08-26T17:36:18.746Z,99969.95
2022-08-26T17:41:21.856Z,99968.42
2022-08-26T17:46:26.337Z,99972.76
2022-08-26T17:51:29.706Z,99979.15
2022-08-26T17:56:32.709Z,99984.73
2022-08-26T18:01:35.740Z,99990.70
2022-08-26T18:06:39.645Z,99994.14
2022-08-26T18:11:43.361Z,99996.88
2022-08-26T18:16:46.686Z,100004.08
2022-08-26T18:21:49.688Z,100004.95
2022-08-26T18:26:52.593Z,100006.30
2022-08-26T18:31:55.757Z,100004.05
2022-08-26T18:36:58.721Z,100013.44
2022-08-26T18:42:01.956Z,100017.72
2022-08-26T18:47:05.027Z,100023.83
2022-08-26T18:52:08.243Z,100027.33
2022-08-26T18:57:12.374Z,100029.89
2022-08-26T19:02:15.492Z,100039.46
2022-08-26T19:07:20.567Z,100039.98
2022-08-26T19:12:26.994Z,100040.90
2022-08-26T19:17:30.341Z,100037.48
2022-08-26T19:22:33.757Z,100040.91
2022-08-26T19:27:36.761Z,100043.64
2022-08-26T19:32:40.177Z,100047.20
2022-08-26T19:37:46.371Z,100050.64
2022-08-26T19:42:50.395Z,100050.45
2022-08-26T19:47:54.127Z,100058.91
2022-08-26T19:52:57.220Z,100062.56
2022-08-26T19:58:00.343Z,100066.95
2022-08-26T20:03:03.688Z,100071.53
2022-08-26T20:08:06.620Z,100069.02
2022-08-26T20:13:09.861Z,100068.84
2022-08-26T20:18:31.610Z,100072.02
2022-08-26T20:23:36.569Z,100071.17
2022-08-26T20:28:39.594Z,100072.73
2022-08-26T20:33:46.597Z,100080.42
2022-08-26T20:38:50.553Z,100082.91
2022-08-26T20:43:54.752Z,100079.47
2022-08-26T20:48:58.299Z,100075.42
2022-08-26T20:54:01.791Z,100074.02
2022-08-26T20:59:07.186Z,100072.66
2022-08-26T21:04:14.091Z,100072.30
2022-08-26T21:09:18.165Z,100068.30
2022-08-26T21:14:25.889Z,100064.98
2022-08-26T21:19:29.194Z,100059.73
2022-08-26T21:24:32.404Z,100058.73
2022-08-26T21:29:36.522Z,100052.71
2022-08-26T21:34:39.545Z,100052.77
2022-08-26T21:39:42.858Z,100053.86
2022-08-26T21:44:46.497Z,100056.13
2022-08-26T21:49:56.041Z,100061.02
2022-08-26T21:55:00.994Z,100056.99
2022-08-26T22:00:08.753Z,100056.44
2022-08-26T22:05:12.024Z,100057.93
2022-08-26T22:10:15.134Z,100059.77
2022-08-26T22:15:23.118Z,100054.86
2022-08-26T22:20:26.281Z,100051.57
2022-08-26T22:25:29.374Z,100057.99
2022-08-26T22:30:35.557Z,100060.14
2022-08-26T22:35:43.915Z,100065.65
2022-08-26T22:40:56.829Z,100059.45
2022-08-26T22:46:00.118Z,100061.03
2022-08-26T22:51:06.435Z,100063.69
2022-08-26T22:56:09.530Z,100057.93
2022-08-26T23:01:13.217Z,100057.20
2022-08-26T23:06:16.465Z,100049.65
2022-08-26T23:11:19.576Z,100042.89
2022-08-26T23:16:22.830Z,100037.58
2022-08-26T23:21:26.000Z,100039.23
2022-08-26T23:26:32.490Z,100044.41
2022-08-26T23:31:38.519Z,100037.67
2022-08-26T23:36:43.617Z,100033.83
2022-08-26T23:41:49.185Z,100029.80
2022-08-26T23:46:52.601Z,100029.73
2022-08-26T23:52:14.147Z,100027.80
2022-08-26T23:57:20.020Z,100020.70
